Hightower, Alabama
Current Conditions -  °F | °C
As of 11:15 AM on Thursday 30 Oct 2014 (Local Time) from KCTJ Reporting Station
Clear Clear  
Wind Chill: 61°   Ceiling: Unl
Heat Index: 61°   Visibility: 10mi
Dew Point: 36°   Wind: 9mph
Humidity: 39%   Direction: 30°NNE
Pressure: 30.1"   Gusts: NA
Location:  33.4631°N, 85.3362°W
Report Text: KCTJ 301615Z AUTO 03008KT 350V060 10SM CLR 16/02 A3010 RMK AO2
Loading
Personal Weather Stations






























Interactive Weather Map
Tropical Storm Tracking
New forecast layout! Learn more

10-Day Weather Forecast

Advertisements
Track Severe Weather on mobile